sensor_id;sensor_type;location;lat;lon;timestamp;pressure;altitude;pressure_sealevel;temperature;humidity
78590;BME280;67888;50.228;7.828;2024-01-30T00:00:56;100465.09;;;-0.29;100.00
78590;BME280;67888;50.228;7.828;2024-01-30T00:05:57;100471.53;;;-0.33;100.00
78590;BME280;67888;50.228;7.828;2024-01-30T00:10:57;100466.38;;;-0.33;100.00
78590;BME280;67888;50.228;7.828;2024-01-30T00:15:58;100467.31;;;-0.18;100.00
78590;BME280;67888;50.228;7.828;2024-01-30T00:20:58;100466.13;;;0.00;100.00
78590;BME280;67888;50.228;7.828;2024-01-30T00:25:58;100466.66;;;-0.20;100.00
78590;BME280;67888;50.228;7.828;2024-01-30T00:30:59;100475.47;;;-0.54;100.00
78590;BME280;67888;50.228;7.828;2024-01-30T00:35:59;100476.72;;;-0.50;100.00
78590;BME280;67888;50.228;7.828;2024-01-30T00:41:00;100474.28;;;-0.35;100.00
78590;BME280;67888;50.228;7.828;2024-01-30T00:46:00;100463.13;;;-0.19;100.00
78590;BME280;67888;50.228;7.828;2024-01-30T00:51:01;100466.63;;;-0.04;100.00
78590;BME280;67888;50.228;7.828;2024-01-30T00:56:01;100467.44;;;-0.04;100.00
78590;BME280;67888;50.228;7.828;2024-01-30T01:01:02;100463.44;;;-0.22;100.00
78590;BME280;67888;50.228;7.828;2024-01-30T01:06:03;100457.22;;;0.03;100.00
78590;BME280;67888;50.228;7.828;2024-01-30T01:11:04;100462.78;;;-0.16;100.00
78590;BME280;67888;50.228;7.828;2024-01-30T01:16:04;100464.13;;;-0.28;100.00
78590;BME280;67888;50.228;7.828;2024-01-30T01:21:05;100454.88;;;-0.15;100.00
78590;BME280;67888;50.228;7.828;2024-01-30T01:26:07;100453.16;;;-0.71;100.00
78590;BME280;67888;50.228;7.828;2024-01-30T01:31:08;100454.94;;;-0.39;100.00
78590;BME280;67888;50.228;7.828;2024-01-30T01:36:09;100449.94;;;-0.73;100.00
78590;BME280;67888;50.228;7.828;2024-01-30T01:41:09;100457.22;;;-0.68;100.00
78590;BME280;67888;50.228;7.828;2024-01-30T01:46:10;100447.66;;;-0.60;100.00
78590;BME280;67888;50.228;7.828;2024-01-30T01:51:10;100447.66;;;-0.44;100.00
78590;BME280;67888;50.228;7.828;2024-01-30T01:56:11;100447.69;;;-0.68;100.00
78590;BME280;67888;50.228;7.828;2024-01-30T02:01:13;100444.59;;;-0.88;100.00
78590;BME280;67888;50.228;7.828;2024-01-30T02:06:14;100445.72;;;-0.58;100.00
78590;BME280;67888;50.228;7.828;2024-01-30T02:11:16;100440.84;;;-0.28;100.00
78590;BME280;67888;50.228;7.828;2024-01-30T02:16:17;100452.84;;;-0.68;100.00
78590;BME280;67888;50.228;7.828;2024-01-30T02:21:18;100442.38;;;-0.91;100.00
78590;BME280;67888;50.228;7.828;2024-01-30T02:26:19;100438.47;;;-0.87;100.00
78590;BME280;67888;50.228;7.828;2024-01-30T02:31:19;100435.75;;;-0.93;100.00
78590;BME280;67888;50.228;7.828;2024-01-30T02:36:19;100436.53;;;-0.85;100.00
78590;BME280;67888;50.228;7.828;2024-01-30T02:41:20;100437.50;;;-0.61;100.00
78590;BME280;67888;50.228;7.828;2024-01-30T02:46:21;100426.03;;;-0.75;100.00
78590;BME280;67888;50.228;7.828;2024-01-30T02:51:22;100429.88;;;-0.39;100.00
78590;BME280;67888;50.228;7.828;2024-01-30T02:56:22;100427.94;;;-0.45;100.00
78590;BME280;67888;50.228;7.828;2024-01-30T03:01:23;100425.69;;;-0.40;100.00
78590;BME280;67888;50.228;7.828;2024-01-30T03:06:24;100420.56;;;-1.04;100.00
78590;BME280;67888;50.228;7.828;2024-01-30T03:11:25;100424.75;;;-0.79;100.00
78590;BME280;67888;50.228;7.828;2024-01-30T03:16:25;100421.53;;;-0.97;100.00
78590;BME280;67888;50.228;7.828;2024-01-30T03:21:26;100418.94;;;-0.81;100.00
78590;BME280;67888;50.228;7.828;2024-01-30T03:26:26;100422.81;;;-1.10;100.00
78590;BME280;67888;50.228;7.828;2024-01-30T03:31:26;100407.16;;;-1.00;100.00
78590;BME280;67888;50.228;7.828;2024-01-30T03:36:27;100409.91;;;-1.18;100.00
78590;BME280;67888;50.228;7.828;2024-01-30T03:41:28;100408.63;;;-1.05;100.00
78590;BME280;67888;50.228;7.828;2024-01-30T03:46:28;100414.44;;;-0.79;100.00
78590;BME280;67888;50.228;7.828;2024-01-30T03:51:29;100407.31;;;-0.85;100.00
78590;BME280;67888;50.228;7.828;2024-01-30T03:56:29;100405.72;;;-1.11;100.00
78590;BME280;67888;50.228;7.828;2024-01-30T04:01:30;100411.03;;;-0.72;100.00
78590;BME280;67888;50.228;7.828;2024-01-30T04:06:30;100407.31;;;-0.85;100.00
78590;BME280;67888;50.228;7.828;2024-01-30T04:11:31;100407.34;;;-0.93;100.00
78590;BME280;67888;50.228;7.828;2024-01-30T04:16:31;100406.03;;;-0.97;100.00
78590;BME280;67888;50.228;7.828;2024-01-30T04:21:32;100394.06;;;-0.82;100.00
78590;BME280;67888;50.228;7.828;2024-01-30T04:26:32;100393.75;;;-0.95;100.00
78590;BME280;67888;50.228;7.828;2024-01-30T04:31:32;100394.66;;;-0.48;100.00
78590;BME280;67888;50.228;7.828;2024-01-30T04:36:33;100409.41;;;-0.73;100.00
78590;BME280;67888;50.228;7.828;2024-01-30T04:41:33;100403.47;;;-0.89;100.00
78590;BME280;67888;50.228;7.828;2024-01-30T04:46:34;100413.75;;;-0.73;100.00
78590;BME280;67888;50.228;7.828;2024-01-30T04:51:34;100402.94;;;-1.01;100.00
78590;BME280;67888;50.228;7.828;2024-01-30T04:56:35;100402.31;;;-1.35;100.00
78590;BME280;67888;50.228;7.828;2024-01-30T05:01:36;100407.00;;;-1.31;100.00
78590;BME280;67888;50.228;7.828;2024-01-30T05:06:37;100415.09;;;-1.01;100.00
78590;BME280;67888;50.228;7.828;2024-01-30T05:11:38;100407.34;;;-1.18;100.00
78590;BME280;67888;50.228;7.828;2024-01-30T05:16:39;100401.84;;;-0.90;100.00
78590;BME280;67888;50.228;7.828;2024-01-30T05:21:40;100388.09;;;-0.66;100.00
78590;BME280;67888;50.228;7.828;2024-01-30T05:26:41;100387.44;;;-0.68;100.00
78590;BME280;67888;50.228;7.828;2024-01-30T05:31:42;100395.38;;;-1.11;100.00
78590;BME280;67888;50.228;7.828;2024-01-30T05:36:42;100391.50;;;-0.90;100.00
78590;BME280;67888;50.228;7.828;2024-01-30T05:41:43;100391.81;;;-0.93;100.00
78590;BME280;67888;50.228;7.828;2024-01-30T05:46:43;100394.72;;;-0.96;100.00
78590;BME280;67888;50.228;7.828;2024-01-30T05:51:44;100399.25;;;-0.90;100.00
78590;BME280;67888;50.228;7.828;2024-01-30T05:56:44;100397.31;;;-1.13;100.00
78590;BME280;67888;50.228;7.828;2024-01-30T06:01:48;100396.50;;;-1.13;100.00
78590;BME280;67888;50.228;7.828;2024-01-30T06:06:49;100397.63;;;-1.32;100.00
78590;BME280;67888;50.228;7.828;2024-01-30T06:11:49;100400.53;;;-1.43;100.00
78590;BME280;67888;50.228;7.828;2024-01-30T06:16:50;100403.25;;;-1.36;100.00
78590;BME280;67888;50.228;7.828;2024-01-30T06:21:50;100406.69;;;-1.03;100.00
78590;BME280;67888;50.228;7.828;2024-01-30T06:26:51;100403.09;;;-1.35;100.00
78590;BME280;67888;50.228;7.828;2024-01-30T06:31:51;100401.81;;;-1.23;100.00
78590;BME280;67888;50.228;7.828;2024-01-30T06:36:52;100399.53;;;-1.58;100.00
78590;BME280;67888;50.228;7.828;2024-01-30T06:41:52;100401.50;;;-1.36;100.00
78590;BME280;67888;50.228;7.828;2024-01-30T06:46:53;100408.63;;;-1.05;100.00
78590;BME280;67888;50.228;7.828;2024-01-30T06:51:53;100407.97;;;-1.08;100.00
78590;BME280;67888;50.228;7.828;2024-01-30T06:56:54;100407.97;;;-1.08;100.00
78590;BME280;67888;50.228;7.828;2024-01-30T07:01:54;100411.50;;;-0.84;100.00
78590;BME280;67888;50.228;7.828;2024-01-30T07:06:55;100414.56;;;-0.73;100.00
78590;BME280;67888;50.228;7.828;2024-01-30T07:11:55;100414.91;;;-1.24;100.00
78590;BME280;67888;50.228;7.828;2024-01-30T07:16:58;100404.09;;;-0.79;100.00
78590;BME280;67888;50.228;7.828;2024-01-30T07:21:58;100414.41;;;-1.20;100.00
78590;BME280;67888;50.228;7.828;2024-01-30T07:26:59;100423.13;;;-1.21;100.00
78590;BME280;67888;50.228;7.828;2024-01-30T07:31:59;100426.69;;;-1.30;100.00
78590;BME280;67888;50.228;7.828;2024-01-30T07:37:00;100435.72;;;-1.10;100.00
78590;BME280;67888;50.228;7.828;2024-01-30T07:42:00;100434.47;;;-0.89;100.00
78590;BME280;67888;50.228;7.828;2024-01-30T07:47:00;100438.97;;;-1.08;100.00
78590;BME280;67888;50.228;7.828;2024-01-30T07:52:01;100441.72;;;-0.93;100.00
78590;BME280;67888;50.228;7.828;2024-01-30T07:57:01;100447.19;;;-0.39;100.00
78590;BME280;67888;50.228;7.828;2024-01-30T08:02:02;100441.81;;;-0.29;100.00
78590;BME280;67888;50.228;7.828;2024-01-30T08:07:03;100451.63;;;-0.17;100.00
78590;BME280;67888;50.228;7.828;2024-01-30T08:12:04;100457.66;;;0.15;100.00
78590;BME280;67888;50.228;7.828;2024-01-30T08:17:04;100448.47;;;0.12;100.00
78590;BME280;67888;50.228;7.828;2024-01-30T08:22:05;100440.59;;;0.37;100.00
78590;BME280;67888;50.228;7.828;2024-01-30T08:27:06;100446.06;;;0.42;100.00
78590;BME280;67888;50.228;7.828;2024-01-30T08:32:07;100446.66;;;0.52;100.00
78590;BME280;67888;50.228;7.828;2024-01-30T08:37:07;100441.47;;;0.52;100.00
78590;BME280;67888;50.228;7.828;2024-01-30T08:42:08;100433.91;;;0.73;100.00
78590;BME280;67888;50.228;7.828;2024-01-30T08:47:08;100436.50;;;0.73;100.00
78590;BME280;67888;50.228;7.828;2024-01-30T08:52:09;100445.78;;;1.13;100.00
78590;BME280;67888;50.228;7.828;2024-01-30T08:57:09;100438.22;;;1.03;100.00
78590;BME280;67888;50.228;7.828;2024-01-30T09:02:10;100447.66;;;1.19;100.00
78590;BME280;67888;50.228;7.828;2024-01-30T09:07:12;100448.97;;;1.38;100.00
78590;BME280;67888;50.228;7.828;2024-01-30T09:12:13;100442.63;;;1.18;100.00
78590;BME280;67888;50.228;7.828;2024-01-30T09:17:14;100445.88;;;0.97;100.00
78590;BME280;67888;50.228;7.828;2024-01-30T09:22:15;100448.75;;;1.25;100.00
78590;BME280;67888;50.228;7.828;2024-01-30T09:27:15;100444.72;;;1.22;100.00
78590;BME280;67888;50.228;7.828;2024-01-30T09:32:16;100437.31;;;1.34;100.00
78590;BME280;67888;50.228;7.828;2024-01-30T09:37:18;100449.97;;;1.66;100.00
78590;BME280;67888;50.228;7.828;2024-01-30T09:42:28;100440.59;;;1.95;100.00
78590;BME280;67888;50.228;7.828;2024-01-30T09:47:40;100451.94;;;2.38;100.00
78590;BME280;67888;50.228;7.828;2024-01-30T09:52:44;100455.25;;;2.17;100.00
78590;BME280;67888;50.228;7.828;2024-01-30T09:57:44;100449.06;;;2.33;100.00
78590;BME280;67888;50.228;7.828;2024-01-30T10:02:45;100453.75;;;2.59;100.00
78590;BME280;67888;50.228;7.828;2024-01-30T10:07:56;100466.75;;;2.44;100.00
78590;BME280;67888;50.228;7.828;2024-01-30T10:12:59;100466.22;;;2.48;100.00
78590;BME280;67888;50.228;7.828;2024-01-30T10:18:00;100470.91;;;2.38;100.00
78590;BME280;67888;50.228;7.828;2024-01-30T10:23:01;100458.50;;;2.91;100.00
78590;BME280;67888;50.228;7.828;2024-01-30T10:28:01;100469.13;;;3.39;100.00
78590;BME280;67888;50.228;7.828;2024-01-30T10:33:02;100455.53;;;3.71;100.00
78590;BME280;67888;50.228;7.828;2024-01-30T10:38:03;100448.78;;;4.18;100.00
78590;BME280;67888;50.228;7.828;2024-01-30T10:43:08;100440.88;;;4.59;100.00
78590;BME280;67888;50.228;7.828;2024-01-30T10:48:12;100456.41;;;4.87;100.00
78590;BME280;67888;50.228;7.828;2024-01-30T10:53:14;100452.44;;;5.57;100.00
78590;BME280;67888;50.228;7.828;2024-01-30T10:58:17;100454.19;;;5.76;100.00
78590;BME280;67888;50.228;7.828;2024-01-30T11:03:18;100430.06;;;6.00;100.00
78590;BME280;67888;50.228;7.828;2024-01-30T11:08:24;100457.94;;;6.13;100.00
78590;BME280;67888;50.228;7.828;2024-01-30T11:13:31;100464.97;;;6.64;100.00
78590;BME280;67888;50.228;7.828;2024-01-30T11:18:33;100458.69;;;6.71;100.00
78590;BME280;67888;50.228;7.828;2024-01-30T11:23:35;100462.75;;;7.24;100.00
78590;BME280;67888;50.228;7.828;2024-01-30T11:28:37;100457.22;;;7.38;100.00
78590;BME280;67888;50.228;7.828;2024-01-30T11:33:38;100454.03;;;7.79;100.00
78590;BME280;67888;50.228;7.828;2024-01-30T11:38:39;100447.13;;;7.85;100.00
78590;BME280;67888;50.228;7.828;2024-01-30T11:43:39;100439.25;;;7.67;100.00
78590;BME280;67888;50.228;7.828;2024-01-30T11:48:40;100449.75;;;7.85;100.00
78590;BME280;67888;50.228;7.828;2024-01-30T11:53:41;100450.22;;;8.12;100.00
78590;BME280;67888;50.228;7.828;2024-01-30T11:58:44;100442.09;;;8.38;100.00
78590;BME280;67888;50.228;7.828;2024-01-30T12:03:51;100427.16;;;8.69;100.00
78590;BME280;67888;50.228;7.828;2024-01-30T12:09:02;100430.66;;;9.04;100.00
78590;BME280;67888;50.228;7.828;2024-01-30T12:14:04;100418.94;;;9.30;100.00
78590;BME280;67888;50.228;7.828;2024-01-30T12:19:05;100404.78;;;9.54;100.00
78590;BME280;67888;50.228;7.828;2024-01-30T12:24:05;100410.69;;;9.85;100.00
78590;BME280;67888;50.228;7.828;2024-01-30T12:29:07;100393.59;;;10.39;100.00
78590;BME280;67888;50.228;7.828;2024-01-30T12:34:08;100394.03;;;10.48;100.00
78590;BME280;67888;50.228;7.828;2024-01-30T12:39:11;100411.09;;;10.45;100.00
78590;BME280;67888;50.228;7.828;2024-01-30T12:44:13;100394.31;;;10.63;100.00
78590;BME280;67888;50.228;7.828;2024-01-30T12:49:14;100399.34;;;10.81;100.00
78590;BME280;67888;50.228;7.828;2024-01-30T12:54:15;100395.19;;;10.68;100.00
78590;BME280;67888;50.228;7.828;2024-01-30T12:59:15;100395.66;;;10.49;100.00
78590;BME280;67888;50.228;7.828;2024-01-30T13:04:16;100405.03;;;10.45;100.00
78590;BME280;67888;50.228;7.828;2024-01-30T13:09:16;100394.03;;;10.48;100.00
78590;BME280;67888;50.228;7.828;2024-01-30T13:14:18;100400.91;;;10.49;100.00
78590;BME280;67888;50.228;7.828;2024-01-30T13:19:18;100397.25;;;10.50;100.00
78590;BME280;67888;50.228;7.828;2024-01-30T13:24:19;100399.31;;;10.48;100.00
78590;BME280;67888;50.228;7.828;2024-01-30T13:29:21;100404.34;;;10.49;100.00
78590;BME280;67888;50.228;7.828;2024-01-30T13:34:22;100397.19;;;10.33;100.00
78590;BME280;67888;50.228;7.828;2024-01-30T13:39:22;100404.66;;;10.24;100.00
78590;BME280;67888;50.228;7.828;2024-01-30T13:44:23;100402.72;;;10.20;100.00
78590;BME280;67888;50.228;7.828;2024-01-30T13:49:24;100392.88;;;10.15;100.00
78590;BME280;67888;50.228;7.828;2024-01-30T13:54:24;100389.13;;;10.11;100.00
78590;BME280;67888;50.228;7.828;2024-01-30T13:59:24;100407.19;;;10.07;100.00
78590;BME280;67888;50.228;7.828;2024-01-30T14:04:26;100398.31;;;9.97;100.00
78590;BME280;67888;50.228;7.828;2024-01-30T14:09:26;100397.91;;;10.17;100.00
78590;BME280;67888;50.228;7.828;2024-01-30T14:14:27;100410.56;;;9.80;100.00
78590;BME280;67888;50.228;7.828;2024-01-30T14:19:27;100406.91;;;9.81;100.00
78590;BME280;67888;50.228;7.828;2024-01-30T14:24:28;100400.03;;;9.91;100.00
78590;BME280;67888;50.228;7.828;2024-01-30T14:29:28;100412.94;;;9.93;100.00
78590;BME280;67888;50.228;7.828;2024-01-30T14:34:29;100420.84;;;9.93;100.00
78590;BME280;67888;50.228;7.828;2024-01-30T14:39:29;100422.47;;;9.82;100.00
78590;BME280;67888;50.228;7.828;2024-01-30T14:44:30;100438.81;;;9.73;100.00
78590;BME280;67888;50.228;7.828;2024-01-30T14:49:31;100433.97;;;9.93;100.00
78590;BME280;67888;50.228;7.828;2024-01-30T14:54:32;100435.47;;;10.00;100.00
78590;BME280;67888;50.228;7.828;2024-01-30T14:59:32;100424.16;;;10.00;100.00
78590;BME280;67888;50.228;7.828;2024-01-30T15:04:34;100436.94;;;10.08;100.00
78590;BME280;67888;50.228;7.828;2024-01-30T15:09:38;100445.63;;;9.97;100.00
78590;BME280;67888;50.228;7.828;2024-01-30T15:14:43;100449.19;;;9.91;100.00
78590;BME280;67888;50.228;7.828;2024-01-30T15:19:50;100459.59;;;9.86;100.00
78590;BME280;67888;50.228;7.828;2024-01-30T15:24:51;100465.53;;;9.93;100.00
78590;BME280;67888;50.228;7.828;2024-01-30T15:29:51;100466.47;;;9.87;100.00
78590;BME280;67888;50.228;7.828;2024-01-30T15:34:52;100486.47;;;9.99;100.00
78590;BME280;67888;50.228;7.828;2024-01-30T15:39:53;100489.78;;;9.72;100.00
78590;BME280;67888;50.228;7.828;2024-01-30T15:44:53;100495.47;;;9.68;100.00
78590;BME280;67888;50.228;7.828;2024-01-30T15:49:54;100507.69;;;9.40;100.00
78590;BME280;67888;50.228;7.828;2024-01-30T15:54:54;100507.41;;;9.18;100.00
78590;BME280;67888;50.228;7.828;2024-01-30T15:59:55;100513.03;;;9.33;100.00
78590;BME280;67888;50.228;7.828;2024-01-30T16:04:56;100524.59;;;9.44;100.00
78590;BME280;67888;50.228;7.828;2024-01-30T16:09:56;100533.16;;;9.39;100.00
78590;BME280;67888;50.228;7.828;2024-01-30T16:14:57;100529.69;;;9.27;100.00
78590;BME280;67888;50.228;7.828;2024-01-30T16:19:57;100542.63;;;9.40;100.00
78590;BME280;67888;50.228;7.828;2024-01-30T16:24:58;100538.13;;;9.17;100.00
78590;BME280;67888;50.228;7.828;2024-01-30T16:29:58;100554.09;;;9.16;100.00
78590;BME280;67888;50.228;7.828;2024-01-30T16:34:59;100553.41;;;9.09;100.00
78590;BME280;67888;50.228;7.828;2024-01-30T16:39:59;100568.00;;;9.05;100.00
78590;BME280;67888;50.228;7.828;2024-01-30T16:45:00;100569.19;;;8.90;100.00
78590;BME280;67888;50.228;7.828;2024-01-30T16:50:00;100582.72;;;8.87;100.00
78590;BME280;67888;50.228;7.828;2024-01-30T16:55:01;100583.03;;;8.97;100.00
78590;BME280;67888;50.228;7.828;2024-01-30T17:00:01;100584.53;;;9.05;100.00
78590;BME280;67888;50.228;7.828;2024-01-30T17:05:02;100587.91;;;8.94;100.00
78590;BME280;67888;50.228;7.828;2024-01-30T17:10:02;100587.09;;;9.12;100.00
78590;BME280;67888;50.228;7.828;2024-01-30T17:15:03;100595.75;;;8.82;100.00
78590;BME280;67888;50.228;7.828;2024-01-30T17:20:05;100594.63;;;8.90;100.00
78590;BME280;67888;50.228;7.828;2024-01-30T17:25:07;100591.19;;;8.89;100.00
78590;BME280;67888;50.228;7.828;2024-01-30T17:30:11;100597.09;;;9.03;100.00
78590;BME280;67888;50.228;7.828;2024-01-30T17:35:12;100603.19;;;8.85;100.00
78590;BME280;67888;50.228;7.828;2024-01-30T17:40:12;100618.78;;;8.98;100.00
78590;BME280;67888;50.228;7.828;2024-01-30T17:45:13;100621.97;;;8.82;100.00
78590;BME280;67888;50.228;7.828;2024-01-30T17:50:13;100622.25;;;8.74;100.00
78590;BME280;67888;50.228;7.828;2024-01-30T17:55:14;100621.41;;;8.80;100.00
78590;BME280;67888;50.228;7.828;2024-01-30T18:00:14;100625.19;;;8.84;100.00
78590;BME280;67888;50.228;7.828;2024-01-30T18:05:15;100629.13;;;8.93;100.00
78590;BME280;67888;50.228;7.828;2024-01-30T18:10:15;100624.41;;;9.14;100.00
78590;BME280;67888;50.228;7.828;2024-01-30T18:15:19;100624.56;;;9.01;100.00
78590;BME280;67888;50.228;7.828;2024-01-30T18:20:19;100624.56;;;9.01;100.00
78590;BME280;67888;50.228;7.828;2024-01-30T18:25:20;100627.06;;;8.95;100.00
78590;BME280;67888;50.228;7.828;2024-01-30T18:30:20;100627.06;;;8.95;100.00
78590;BME280;67888;50.228;7.828;2024-01-30T18:35:21;100633.13;;;8.96;100.00
78590;BME280;67888;50.228;7.828;2024-01-30T18:40:22;100648.56;;;9.04;100.00
78590;BME280;67888;50.228;7.828;2024-01-30T18:45:23;100655.66;;;9.04;100.00
78590;BME280;67888;50.228;7.828;2024-01-30T18:50:24;100657.34;;;8.98;100.00
78590;BME280;67888;50.228;7.828;2024-01-30T18:55:24;100659.00;;;8.92;100.00
78590;BME280;67888;50.228;7.828;2024-01-30T19:00:25;100655.78;;;8.90;100.00
78590;BME280;67888;50.228;7.828;2024-01-30T19:05:28;100660.47;;;8.88;100.00
78590;BME280;67888;50.228;7.828;2024-01-30T19:10:29;100662.22;;;8.94;100.00
78590;BME280;67888;50.228;7.828;2024-01-30T19:15:29;100660.78;;;8.98;100.00
78590;BME280;67888;50.228;7.828;2024-01-30T19:20:30;100664.53;;;9.03;100.00
78590;BME280;67888;50.228;7.828;2024-01-30T19:25:30;100658.00;;;8.93;100.00
78590;BME280;67888;50.228;7.828;2024-01-30T19:30:31;100664.25;;;8.92;100.00
78590;BME280;67888;50.228;7.828;2024-01-30T19:35:31;100658.16;;;8.98;100.00
78590;BME280;67888;50.228;7.828;2024-01-30T19:40:32;100663.03;;;8.95;100.00
78590;BME280;67888;50.228;7.828;2024-01-30T19:45:33;100670.69;;;8.96;100.00
78590;BME280;67888;50.228;7.828;2024-01-30T19:50:34;100675.72;;;8.98;100.00
78590;BME280;67888;50.228;7.828;2024-01-30T19:55:34;100677.03;;;9.07;100.00
78590;BME280;67888;50.228;7.828;2024-01-30T20:00:35;100674.13;;;8.97;100.00
78590;BME280;67888;50.228;7.828;2024-01-30T20:05:35;100674.75;;;8.92;100.00
78590;BME280;67888;50.228;7.828;2024-01-30T20:10:36;100674.09;;;8.79;100.00
78590;BME280;67888;50.228;7.828;2024-01-30T20:15:36;100670.03;;;8.83;100.00
78590;BME280;67888;50.228;7.828;2024-01-30T20:20:37;100685.69;;;9.08;100.00
78590;BME280;67888;50.228;7.828;2024-01-30T20:25:41;100690.44;;;9.17;100.00
78590;BME280;67888;50.228;7.828;2024-01-30T20:30:42;100688.31;;;9.08;100.00
78590;BME280;67888;50.228;7.828;2024-01-30T20:35:42;100698.47;;;9.04;100.00
78590;BME280;67888;50.228;7.828;2024-01-30T20:40:43;100698.91;;;8.83;100.00
78590;BME280;67888;50.228;7.828;2024-01-30T20:45:44;100697.47;;;8.62;100.00
78590;BME280;67888;50.228;7.828;2024-01-30T20:50:44;100705.53;;;8.42;100.00
78590;BME280;67888;50.228;7.828;2024-01-30T20:55:45;100708.09;;;8.49;100.00
78590;BME280;67888;50.228;7.828;2024-01-30T21:00:45;100715.72;;;8.32;100.00
78590;BME280;67888;50.228;7.828;2024-01-30T21:05:46;100728.19;;;8.05;100.00
78590;BME280;67888;50.228;7.828;2024-01-30T21:10:46;100744.59;;;7.94;100.00
78590;BME280;67888;50.228;7.828;2024-01-30T21:15:47;100734.03;;;8.01;100.00
78590;BME280;67888;50.228;7.828;2024-01-30T21:20:47;100747.81;;;7.89;100.00
78590;BME280;67888;50.228;7.828;2024-01-30T21:25:48;100754.88;;;7.89;100.00
78590;BME280;67888;50.228;7.828;2024-01-30T21:30:48;100753.06;;;7.89;100.00
78590;BME280;67888;50.228;7.828;2024-01-30T21:35:49;100737.94;;;7.91;100.00
78590;BME280;67888;50.228;7.828;2024-01-30T21:40:50;100735.72;;;7.95;100.00
78590;BME280;67888;50.228;7.828;2024-01-30T21:45:50;100746.28;;;7.75;100.00
78590;BME280;67888;50.228;7.828;2024-01-30T21:50:51;100751.59;;;7.62;100.00
78590;BME280;67888;50.228;7.828;2024-01-30T21:55:51;100758.84;;;7.67;100.00
78590;BME280;67888;50.228;7.828;2024-01-30T22:00:52;100765.31;;;7.58;100.00
78590;BME280;67888;50.228;7.828;2024-01-30T22:05:52;100763.38;;;7.40;100.00
78590;BME280;67888;50.228;7.828;2024-01-30T22:10:53;100762.50;;;7.52;100.00
78590;BME280;67888;50.228;7.828;2024-01-30T22:15:53;100765.63;;;7.30;100.00
78590;BME280;67888;50.228;7.828;2024-01-30T22:20:54;100763.34;;;7.46;100.00
78590;BME280;67888;50.228;7.828;2024-01-30T22:25:54;100772.03;;;7.40;100.00
78590;BME280;67888;50.228;7.828;2024-01-30T22:30:55;100769.16;;;7.48;100.00
78590;BME280;67888;50.228;7.828;2024-01-30T22:35:55;100775.50;;;7.34;100.00
78590;BME280;67888;50.228;7.828;2024-01-30T22:40:59;100776.47;;;7.40;100.00
78590;BME280;67888;50.228;7.828;2024-01-30T22:45:59;100779.44;;;7.50;100.00
78590;BME280;67888;50.228;7.828;2024-01-30T22:51:00;100788.78;;;7.33;100.00
78590;BME280;67888;50.228;7.828;2024-01-30T22:56:00;100791.53;;;7.51;100.00
78590;BME280;67888;50.228;7.828;2024-01-30T23:01:01;100791.19;;;7.28;100.00
78590;BME280;67888;50.228;7.828;2024-01-30T23:06:01;100788.97;;;7.25;100.00
78590;BME280;67888;50.228;7.828;2024-01-30T23:11:02;100810.97;;;7.17;100.00
78590;BME280;67888;50.228;7.828;2024-01-30T23:16:03;100808.94;;;7.12;100.00
78590;BME280;67888;50.228;7.828;2024-01-30T23:21:04;100819.84;;;7.03;100.00
78590;BME280;67888;50.228;7.828;2024-01-30T23:26:05;100813.81;;;6.89;100.00
78590;BME280;67888;50.228;7.828;2024-01-30T23:31:05;100819.84;;;6.96;100.00
78590;BME280;67888;50.228;7.828;2024-01-30T23:36:06;100833.31;;;7.00;100.00
78590;BME280;67888;50.228;7.828;2024-01-30T23:41:07;100830.31;;;6.90;100.00
78590;BME280;67888;50.228;7.828;2024-01-30T23:46:07;100824.66;;;6.99;100.00
78590;BME280;67888;50.228;7.828;2024-01-30T23:51:07;100827.91;;;7.08;100.00
78590;BME280;67888;50.228;7.828;2024-01-30T23:56:08;100819.44;;;6.93;100.00
